createdAt,value
2023-02-07T00:00:53.685Z,1.20
2023-02-07T00:03:20.327Z,3.05
2023-02-07T00:05:46.928Z,2.88
2023-02-07T00:08:15.221Z,9.63
2023-02-07T00:10:42.061Z,8.82
2023-02-07T00:13:08.719Z,9.10
2023-02-07T00:15:35.618Z,5.55
2023-02-07T00:18:02.462Z,9.00
2023-02-07T00:20:28.997Z,12.68
2023-02-07T00:22:55.642Z,9.98
2023-02-07T00:25:22.570Z,8.43
2023-02-07T00:27:49.348Z,11.57
2023-02-07T00:30:16.308Z,9.80
2023-02-07T00:32:43.119Z,9.95
2023-02-07T00:35:09.869Z,12.00
2023-02-07T00:37:36.510Z,5.28
2023-02-07T00:40:04.056Z,5.43
2023-02-07T00:42:30.943Z,8.57
2023-02-07T00:44:57.702Z,4.60
2023-02-07T00:47:24.282Z,5.57
2023-02-07T00:49:50.890Z,6.72
2023-02-07T00:52:17.524Z,9.35
2023-02-07T00:54:44.129Z,7.53
2023-02-07T00:57:10.762Z,5.38
2023-02-07T00:59:37.383Z,6.72
2023-02-07T01:02:03.966Z,3.35
2023-02-07T01:04:30.584Z,4.38
2023-02-07T01:06:57.198Z,6.10
2023-02-07T01:09:23.750Z,6.07
2023-02-07T01:11:50.366Z,9.00
2023-02-07T01:14:16.978Z,11.30
2023-02-07T01:16:43.594Z,10.52
2023-02-07T01:19:11.678Z,7.20
2023-02-07T01:21:38.338Z,15.68
2023-02-07T01:24:06.691Z,9.40
2023-02-07T01:26:34.528Z,3.17
2023-02-07T01:29:02.526Z,9.82
2023-02-07T01:31:29.639Z,6.68
2023-02-07T01:33:58.398Z,9.90
2023-02-07T01:36:27.353Z,9.60
2023-02-07T01:38:54.782Z,9.55
2023-02-07T01:41:23.241Z,8.15
2023-02-07T01:43:53.785Z,11.02
2023-02-07T01:46:20.480Z,9.07
2023-02-07T01:48:47.448Z,7.80
2023-02-07T01:51:14.264Z,10.10
2023-02-07T01:53:41.664Z,9.48
2023-02-07T01:56:20.067Z,8.45
2023-02-07T01:58:53.737Z,9.63
2023-02-07T02:01:24.488Z,10.18
2023-02-07T02:03:54.668Z,6.65
2023-02-07T02:06:24.280Z,8.38
2023-02-07T02:08:54.700Z,5.63
2023-02-07T02:11:30.891Z,7.30
2023-02-07T02:14:17.657Z,7.07
2023-02-07T02:17:01.092Z,7.10
2023-02-07T02:19:51.290Z,7.70
2023-02-07T02:22:38.495Z,9.57
2023-02-07T02:25:38.610Z,6.22
2023-02-07T02:28:33.721Z,10.60
2023-02-07T02:31:38.202Z,5.20
2023-02-07T02:34:14.151Z,7.70
2023-02-07T02:37:02.078Z,6.10
2023-02-07T02:39:34.640Z,9.73
2023-02-07T02:42:18.805Z,8.43
2023-02-07T02:45:16.770Z,7.97
2023-02-07T02:47:47.712Z,6.82
2023-02-07T02:50:28.464Z,9.43
2023-02-07T02:52:55.483Z,9.45
2023-02-07T02:55:46.760Z,8.02
2023-02-07T02:58:29.083Z,5.30
2023-02-07T03:01:14.388Z,8.00
2023-02-07T03:03:49.841Z,5.68
2023-02-07T03:06:21.806Z,7.57
2023-02-07T03:09:17.317Z,1.88
2023-02-07T03:11:56.395Z,5.97
2023-02-07T03:14:49.920Z,3.83
2023-02-07T03:17:43.776Z,1.25
2023-02-07T03:20:26.428Z,5.15
2023-02-07T03:22:56.865Z,2.90
2023-02-07T03:25:25.310Z,4.75
2023-02-07T03:27:55.035Z,6.75
2023-02-07T03:30:24.607Z,7.82
2023-02-07T03:32:57.925Z,9.18
2023-02-07T03:35:29.239Z,7.80
2023-02-07T03:38:00.924Z,9.95
2023-02-07T03:40:33.558Z,9.73
2023-02-07T03:43:13.139Z,8.02
2023-02-07T03:45:40.441Z,9.07
2023-02-07T03:48:07.382Z,8.43
2023-02-07T03:50:33.991Z,8.23
2023-02-07T03:53:00.619Z,10.45
2023-02-07T03:55:27.777Z,3.42
2023-02-07T03:57:54.447Z,7.97
2023-02-07T04:00:21.043Z,7.13
2023-02-07T04:02:47.698Z,8.95
2023-02-07T04:05:14.328Z,6.93
2023-02-07T04:07:41.093Z,7.00
2023-02-07T04:10:08.412Z,4.65
2023-02-07T04:12:34.953Z,3.80
2023-02-07T04:15:02.846Z,3.55
2023-02-07T04:17:31.271Z,7.60
2023-02-07T04:19:58.245Z,5.57
2023-02-07T04:22:24.927Z,5.22
2023-02-07T04:24:51.576Z,3.17
2023-02-07T04:27:18.200Z,5.78
2023-02-07T04:29:45.047Z,6.75
2023-02-07T04:32:11.847Z,5.88
2023-02-07T04:34:38.479Z,8.27
2023-02-07T04:37:05.109Z,9.45
2023-02-07T04:39:31.753Z,9.52
2023-02-07T04:41:58.690Z,8.88
2023-02-07T04:44:25.333Z,6.65
2023-02-07T04:46:51.966Z,7.82
2023-02-07T04:49:18.550Z,9.68
2023-02-07T04:51:45.252Z,7.57
2023-02-07T04:54:11.980Z,8.93
2023-02-07T04:56:38.638Z,8.90
2023-02-07T04:59:05.263Z,5.50
2023-02-07T05:01:32.314Z,3.17
2023-02-07T05:03:59.193Z,3.47
2023-02-07T05:06:25.916Z,4.90
2023-02-07T05:08:52.555Z,2.47
2023-02-07T05:11:19.665Z,2.78
2023-02-07T05:13:46.264Z,3.17
2023-02-07T05:16:12.897Z,4.30
2023-02-07T05:18:39.437Z,6.95
2023-02-07T05:21:06.294Z,7.43
2023-02-07T05:23:32.969Z,7.55
2023-02-07T05:25:59.659Z,8.38
2023-02-07T05:28:26.337Z,6.95
2023-02-07T05:30:55.369Z,7.13
2023-02-07T05:33:22.085Z,3.05
2023-02-07T05:35:48.664Z,4.07
2023-02-07T05:38:17.240Z,5.55
2023-02-07T05:40:44.283Z,7.45
2023-02-07T05:43:12.133Z,6.72
2023-02-07T05:45:39.329Z,1.02
2023-02-07T05:48:06.918Z,6.60
2023-02-07T05:50:33.532Z,6.78
2023-02-07T05:53:00.265Z,5.57
2023-02-07T05:55:26.860Z,9.25
2023-02-07T05:57:53.530Z,6.13
2023-02-07T06:00:20.558Z,5.63
2023-02-07T06:02:47.291Z,7.55
2023-02-07T06:05:17.522Z,1.88
2023-02-07T06:10:14.459Z,6.43
2023-02-07T06:12:41.131Z,6.70
2023-02-07T06:15:08.565Z,6.68
2023-02-07T06:17:35.437Z,7.88
2023-02-07T06:20:02.170Z,8.30
2023-02-07T06:22:28.866Z,7.90
2023-02-07T06:24:55.545Z,8.45
2023-02-07T06:27:22.240Z,9.90
2023-02-07T06:29:48.973Z,8.52
2023-02-07T06:32:15.639Z,8.98
2023-02-07T06:34:42.358Z,9.90
2023-02-07T06:37:09.066Z,9.05
2023-02-07T06:39:35.699Z,8.77
2023-02-07T06:42:02.370Z,8.35
2023-02-07T06:44:29.503Z,9.50
2023-02-07T06:46:56.082Z,9.82
2023-02-07T06:49:22.654Z,8.95
2023-02-07T06:51:49.220Z,8.45
2023-02-07T06:54:15.912Z,7.43
2023-02-07T06:56:42.627Z,8.18
2023-02-07T06:59:09.260Z,8.95
2023-02-07T07:01:35.917Z,9.43
2023-02-07T07:04:02.620Z,10.77
2023-02-07T07:06:29.269Z,8.93
2023-02-07T07:08:56.967Z,8.63
2023-02-07T07:11:23.601Z,9.65
2023-02-07T07:13:50.265Z,9.75
2023-02-07T07:16:17.007Z,7.55
2023-02-07T07:18:43.837Z,7.88
2023-02-07T07:21:10.535Z,8.57
2023-02-07T07:23:37.144Z,7.95
2023-02-07T07:26:04.386Z,6.70
2023-02-07T07:28:31.097Z,8.32
2023-02-07T07:31:08.426Z,8.10
2023-02-07T07:33:35.602Z,7.30
2023-02-07T07:36:03.165Z,6.70
2023-02-07T07:38:30.827Z,7.88
2023-02-07T07:40:57.888Z,9.63
2023-02-07T07:43:25.031Z,8.32
2023-02-07T07:45:53.921Z,8.52
2023-02-07T07:48:21.384Z,7.43
2023-02-07T07:50:48.418Z,9.52
2023-02-07T07:53:15.909Z,7.60
2023-02-07T07:55:42.606Z,8.73
2023-02-07T07:58:09.242Z,9.32
2023-02-07T08:00:35.838Z,10.07
2023-02-07T08:03:02.519Z,10.80
2023-02-07T08:05:29.158Z,8.48
2023-02-07T08:07:55.770Z,11.95
2023-02-07T08:10:22.543Z,8.48
2023-02-07T08:12:49.192Z,7.80
2023-02-07T08:15:15.831Z,8.70
2023-02-07T08:17:42.547Z,10.40
2023-02-07T08:20:09.728Z,8.52
2023-02-07T08:22:36.335Z,10.20
2023-02-07T08:25:03.005Z,7.43
2023-02-07T08:27:29.716Z,5.90
2023-02-07T08:29:56.465Z,7.32
2023-02-07T08:32:23.202Z,7.20
2023-02-07T08:34:50.211Z,8.30
2023-02-07T08:37:16.869Z,8.77
2023-02-07T08:39:43.560Z,9.38
2023-02-07T08:42:10.126Z,9.13
2023-02-07T08:44:37.345Z,7.90
2023-02-07T08:47:04.508Z,8.27
2023-02-07T08:49:31.396Z,8.23
2023-02-07T08:51:58.096Z,9.05
2023-02-07T08:54:24.719Z,8.75
2023-02-07T08:56:51.339Z,8.27
2023-02-07T08:59:17.888Z,9.50
2023-02-07T09:01:44.463Z,7.63
2023-02-07T09:04:11.675Z,8.75
2023-02-07T09:06:39.094Z,8.02
2023-02-07T09:09:06.625Z,7.60
2023-02-07T09:11:33.816Z,9.43
2023-02-07T09:14:01.214Z,8.38
2023-02-07T09:16:27.988Z,8.13
2023-02-07T09:18:54.685Z,7.75
2023-02-07T09:21:21.543Z,7.93
2023-02-07T09:23:48.161Z,8.52
2023-02-07T09:26:20.214Z,6.90
2023-02-07T09:28:46.843Z,8.02
2023-02-07T09:31:15.713Z,7.43
2023-02-07T09:33:42.797Z,8.40
2023-02-07T09:36:23.401Z,10.25
2023-02-07T09:38:50.510Z,7.88
2023-02-07T09:41:45.890Z,7.30
2023-02-07T09:44:37.110Z,8.45
2023-02-07T09:47:03.816Z,8.32
2023-02-07T09:49:30.394Z,8.35
2023-02-07T09:51:58.782Z,8.90
2023-02-07T09:54:30.228Z,8.13
2023-02-07T09:57:00.683Z,8.75
2023-02-07T09:59:31.419Z,9.18
2023-02-07T10:02:04.223Z,7.90
2023-02-07T10:04:37.759Z,8.68
2023-02-07T10:07:07.591Z,8.75
2023-02-07T10:09:39.739Z,8.05
2023-02-07T10:12:34.373Z,5.03
2023-02-07T10:15:19.631Z,6.25
2023-02-07T10:18:30.175Z,6.95
2023-02-07T10:21:14.002Z,8.85
2023-02-07T10:23:55.809Z,5.90
2023-02-07T10:26:27.223Z,9.38
2023-02-07T10:28:53.758Z,10.30
2023-02-07T10:31:23.935Z,8.45
2023-02-07T10:34:29.385Z,5.57
2023-02-07T10:36:57.939Z,7.25
2023-02-07T10:39:34.672Z,9.23
2023-02-07T10:42:01.277Z,7.78
2023-02-07T10:44:31.011Z,5.18
2023-02-07T10:47:01.742Z,10.45
2023-02-07T10:49:36.051Z,5.28
2023-02-07T10:52:21.944Z,10.73
2023-02-07T10:54:54.476Z,5.88
2023-02-07T10:57:22.317Z,9.18
2023-02-07T10:59:57.067Z,4.55
2023-02-07T11:02:32.931Z,8.55
2023-02-07T11:05:03.411Z,9.85
2023-02-07T11:07:36.785Z,6.47
2023-02-07T11:10:21.391Z,8.15
2023-02-07T11:12:56.734Z,9.70
2023-02-07T11:15:29.012Z,6.88
2023-02-07T11:17:57.464Z,10.82
2023-02-07T11:20:30.348Z,9.52
2023-02-07T11:22:58.746Z,10.93
2023-02-07T11:25:54.545Z,10.30
2023-02-07T11:28:24.046Z,10.90
2023-02-07T11:30:58.203Z,10.63
2023-02-07T11:33:28.209Z,11.27
2023-02-07T11:38:54.110Z,10.15
2023-02-07T11:41:28.135Z,6.28
2023-02-07T11:44:16.423Z,7.97
2023-02-07T11:46:47.855Z,10.18
2023-02-07T11:49:25.898Z,11.32
2023-02-07T11:51:55.670Z,11.85
2023-02-07T11:54:22.905Z,11.05
2023-02-07T11:56:55.974Z,11.32
2023-02-07T11:59:25.707Z,9.60
2023-02-07T12:01:57.780Z,10.95
2023-02-07T12:04:32.992Z,6.25
2023-02-07T12:07:20.939Z,9.95
2023-02-07T12:10:03.510Z,10.60
2023-02-07T12:12:42.652Z,10.15
2023-02-07T12:15:22.550Z,5.93
2023-02-07T12:18:10.758Z,10.35
2023-02-07T12:20:44.626Z,8.70
2023-02-07T12:23:49.158Z,8.35
2023-02-07T12:26:29.497Z,4.60
2023-02-07T12:29:13.100Z,10.45
2023-02-07T12:31:52.602Z,10.25
2023-02-07T12:34:43.636Z,11.45
2023-02-07T12:37:39.542Z,10.05
2023-02-07T12:40:18.206Z,8.93
2023-02-07T12:43:03.867Z,11.57
2023-02-07T12:45:56.985Z,9.75
2023-02-07T12:48:54.692Z,9.23
2023-02-07T12:51:34.831Z,11.43
2023-02-07T12:54:28.255Z,10.25
2023-02-07T12:57:04.620Z,10.57
2023-02-07T13:00:05.179Z,11.20
2023-02-07T13:02:56.163Z,4.53
2023-02-07T13:05:42.766Z,7.03
2023-02-07T13:08:19.384Z,4.75
2023-02-07T13:11:00.522Z,6.55
2023-02-07T13:13:33.293Z,8.73
2023-02-07T13:17:07.671Z,6.90
2023-02-07T13:19:53.844Z,10.35
2023-02-07T13:22:44.001Z,10.25
2023-02-07T13:25:19.167Z,9.00
2023-02-07T13:27:46.557Z,11.63
2023-02-07T13:30:17.057Z,9.35
2023-02-07T13:32:44.740Z,11.68
2023-02-07T13:35:17.721Z,5.50
2023-02-07T13:38:12.161Z,11.85
2023-02-07T13:40:57.408Z,6.47
2023-02-07T13:44:09.835Z,4.97
2023-02-07T13:47:12.474Z,6.63
2023-02-07T13:50:12.346Z,8.82
2023-02-07T13:53:17.567Z,9.55
2023-02-07T13:55:45.175Z,10.38
2023-02-07T13:58:52.386Z,6.95
2023-02-07T14:01:22.013Z,5.03
2023-02-07T14:04:07.131Z,10.95
2023-02-07T14:06:55.004Z,6.43
2023-02-07T14:09:21.574Z,10.02
2023-02-07T14:12:09.714Z,4.38
2023-02-07T14:14:39.662Z,8.50
2023-02-07T14:17:13.742Z,9.18
2023-02-07T14:19:40.580Z,7.30
2023-02-07T14:22:29.933Z,7.28
2023-02-07T14:24:59.482Z,5.40
2023-02-07T14:27:28.137Z,7.53
2023-02-07T14:30:09.704Z,9.32
2023-02-07T14:32:59.965Z,6.55
2023-02-07T14:35:26.509Z,9.07
2023-02-07T14:38:36.394Z,5.70
2023-02-07T14:41:10.970Z,8.05
2023-02-07T14:43:52.164Z,9.77
2023-02-07T14:46:28.379Z,8.07
2023-02-07T14:49:11.834Z,7.25
2023-02-07T14:51:50.811Z,6.78
2023-02-07T14:54:33.526Z,8.57
2023-02-07T14:57:06.835Z,7.07
2023-02-07T14:59:44.721Z,9.95
2023-02-07T15:02:33.303Z,9.48
2023-02-07T15:05:29.522Z,7.65
2023-02-07T15:08:09.037Z,5.25
2023-02-07T15:10:53.757Z,8.73
2023-02-07T15:13:28.513Z,8.27
2023-02-07T15:16:17.028Z,9.27
2023-02-07T15:18:49.348Z,6.80
2023-02-07T15:21:20.086Z,8.75
2023-02-07T15:24:00.978Z,12.73
2023-02-07T15:26:27.857Z,6.22
2023-02-07T15:29:07.189Z,12.02
2023-02-07T15:31:41.497Z,13.40
2023-02-07T15:34:15.622Z,9.40
2023-02-07T15:36:46.057Z,13.50
2023-02-07T15:39:15.818Z,6.47
2023-02-07T15:41:45.782Z,12.10
2023-02-07T15:44:21.129Z,8.57
2023-02-07T15:47:06.559Z,10.30
2023-02-07T15:49:41.736Z,11.80
2023-02-07T15:52:16.946Z,11.43
2023-02-07T15:54:48.433Z,10.68
2023-02-07T15:57:29.097Z,9.35
2023-02-07T16:00:16.076Z,10.75
2023-02-07T16:02:55.723Z,10.75
2023-02-07T16:05:49.346Z,9.13
2023-02-07T16:08:35.230Z,9.05
2023-02-07T16:11:13.917Z,9.80
2023-02-07T16:13:52.372Z,6.28
2023-02-07T16:16:27.374Z,14.40
2023-02-07T16:19:15.330Z,10.25
2023-02-07T16:21:43.711Z,16.10
2023-02-07T16:24:47.388Z,7.05
2023-02-07T16:27:18.004Z,11.25
2023-02-07T16:29:44.869Z,15.20
2023-02-07T16:32:12.612Z,14.80
2023-02-07T16:34:53.835Z,13.07
2023-02-07T16:37:27.007Z,11.50
2023-02-07T16:39:53.856Z,11.38
2023-02-07T16:42:20.737Z,10.05
2023-02-07T16:44:47.621Z,12.65
2023-02-07T16:47:14.886Z,13.82
2023-02-07T16:49:45.113Z,9.70
2023-02-07T16:52:11.756Z,16.40
2023-02-07T16:54:38.468Z,16.75
2023-02-07T16:57:05.564Z,14.85
2023-02-07T16:59:32.273Z,16.40
2023-02-07T17:01:59.013Z,16.38
2023-02-07T17:04:25.731Z,16.30
2023-02-07T17:06:52.562Z,15.23
2023-02-07T17:09:22.305Z,16.30
2023-02-07T17:11:49.219Z,15.02
2023-02-07T17:14:16.020Z,14.25
2023-02-07T17:16:42.812Z,15.18
2023-02-07T17:19:26.412Z,16.90
2023-02-07T17:21:53.158Z,14.68
2023-02-07T17:24:20.054Z,16.77
2023-02-07T17:26:50.886Z,14.55
2023-02-07T17:29:18.474Z,15.63
2023-02-07T17:31:46.060Z,18.33
2023-02-07T17:34:13.243Z,17.08
2023-02-07T17:36:45.149Z,16.25
2023-02-07T17:39:17.563Z,8.27
2023-02-07T17:41:44.291Z,19.25
2023-02-07T17:44:11.073Z,18.23
2023-02-07T17:46:37.949Z,15.82
2023-02-07T17:49:04.808Z,17.25
2023-02-07T17:51:31.565Z,18.08
2023-02-07T17:53:58.203Z,17.55
2023-02-07T17:56:28.073Z,19.15
2023-02-07T17:58:56.400Z,18.98
2023-02-07T18:01:24.119Z,17.60
2023-02-07T18:03:53.875Z,18.33
2023-02-07T18:06:24.100Z,17.77
2023-02-07T18:08:51.211Z,17.58
2023-02-07T18:11:18.668Z,18.17
2023-02-07T18:13:47.745Z,18.25
2023-02-07T18:16:24.737Z,18.92
2023-02-07T18:18:53.658Z,18.35
2023-02-07T18:21:20.996Z,18.45
2023-02-07T18:23:47.836Z,18.75
2023-02-07T18:26:16.118Z,19.27
2023-02-07T18:28:44.055Z,19.75
2023-02-07T18:31:12.946Z,19.77
2023-02-07T18:33:39.615Z,19.63
2023-02-07T18:36:07.266Z,18.55
2023-02-07T18:38:34.029Z,19.13
2023-02-07T18:41:00.702Z,18.50
2023-02-07T18:43:27.332Z,17.67
2023-02-07T18:45:54.033Z,22.10
2023-02-07T18:48:20.748Z,21.35
2023-02-07T18:50:48.182Z,22.45
2023-02-07T18:53:14.840Z,20.60
2023-02-07T18:55:42.124Z,20.10
2023-02-07T18:58:08.728Z,16.13
2023-02-07T19:00:35.464Z,20.23
2023-02-07T19:03:02.087Z,21.92
2023-02-07T19:05:28.748Z,20.75
2023-02-07T19:07:55.560Z,15.65
2023-02-07T19:10:23.570Z,17.45
2023-02-07T19:12:50.163Z,20.65
2023-02-07T19:15:16.730Z,17.15
2023-02-07T19:17:43.311Z,15.73
2023-02-07T19:20:10.276Z,15.90
2023-02-07T19:22:37.615Z,18.25
2023-02-07T19:25:05.699Z,18.45
2023-02-07T19:27:32.659Z,17.20
2023-02-07T19:29:59.236Z,21.27
2023-02-07T19:32:25.834Z,22.33
2023-02-07T19:34:52.396Z,20.73
2023-02-07T19:37:18.904Z,21.83
2023-02-07T19:39:46.213Z,22.00
2023-02-07T19:42:13.288Z,21.80
2023-02-07T19:44:39.892Z,22.52
2023-02-07T19:47:06.742Z,21.77
2023-02-07T19:49:43.992Z,21.58
2023-02-07T19:52:10.655Z,20.63
2023-02-07T19:54:37.473Z,20.08
2023-02-07T19:57:04.218Z,21.27
2023-02-07T19:59:31.024Z,20.17
2023-02-07T20:01:57.850Z,21.63
2023-02-07T20:04:24.639Z,21.17
2023-02-07T20:06:51.499Z,18.45
2023-02-07T20:09:18.216Z,10.48
2023-02-07T20:11:44.982Z,21.20
2023-02-07T20:14:11.780Z,20.95
2023-02-07T20:16:39.115Z,17.15
2023-02-07T20:19:07.616Z,22.45
2023-02-07T20:21:36.007Z,21.00
2023-02-07T20:24:03.248Z,21.80
2023-02-07T20:26:36.471Z,20.88
2023-02-07T20:29:05.696Z,21.50
2023-02-07T20:31:32.724Z,20.67
2023-02-07T20:34:00.055Z,18.73
2023-02-07T20:36:26.905Z,18.48
2023-02-07T20:38:56.002Z,19.38
2023-02-07T20:41:30.933Z,16.48
2023-02-07T20:43:59.928Z,15.48
2023-02-07T20:46:28.219Z,12.77
2023-02-07T20:48:59.729Z,12.27
2023-02-07T20:51:28.074Z,19.27
2023-02-07T20:53:59.535Z,19.75
2023-02-07T20:56:27.353Z,20.00
2023-02-07T20:58:54.884Z,18.17
2023-02-07T21:01:24.288Z,20.88
2023-02-07T21:03:53.595Z,17.52
2023-02-07T21:06:22.847Z,14.65
2023-02-07T21:08:50.915Z,19.42
2023-02-07T21:11:17.847Z,21.95
2023-02-07T21:13:45.918Z,17.42
2023-02-07T21:16:14.078Z,21.75
2023-02-07T21:18:41.514Z,20.00
2023-02-07T21:21:09.063Z,18.55
2023-02-07T21:23:35.719Z,20.05
2023-02-07T21:26:06.726Z,17.00
2023-02-07T21:28:34.164Z,23.05
2023-02-07T21:31:28.080Z,19.98
2023-02-07T21:33:55.130Z,23.92
2023-02-07T21:36:24.133Z,21.95
2023-02-07T21:38:52.757Z,18.05
2023-02-07T21:41:24.905Z,24.88
2023-02-07T21:43:53.697Z,22.75
2023-02-07T21:46:23.111Z,25.92
2023-02-07T21:48:52.245Z,23.40
2023-02-07T21:51:22.159Z,25.35
2023-02-07T21:53:50.700Z,21.85
2023-02-07T21:56:20.864Z,25.38
2023-02-07T21:58:52.425Z,26.05
2023-02-07T22:01:20.321Z,23.80
2023-02-07T22:03:48.727Z,24.98
2023-02-07T22:06:17.355Z,11.77
2023-02-07T22:08:52.162Z,13.23
2023-02-07T22:11:21.289Z,13.88
2023-02-07T22:13:50.479Z,19.33
2023-02-07T22:16:18.129Z,24.13
2023-02-07T22:18:44.813Z,21.23
2023-02-07T22:21:32.352Z,20.25
2023-02-07T22:23:59.808Z,19.05
2023-02-07T22:26:27.743Z,16.95
2023-02-07T22:28:55.004Z,19.30
2023-02-07T22:31:24.794Z,17.50
2023-02-07T22:33:53.172Z,18.85
2023-02-07T22:36:26.664Z,21.15
2023-02-07T22:38:53.867Z,24.30
2023-02-07T22:41:21.181Z,24.77
2023-02-07T22:43:48.073Z,23.67
2023-02-07T22:46:17.268Z,23.52
2023-02-07T22:48:44.470Z,17.77
2023-02-07T22:51:15.512Z,22.33
2023-02-07T22:53:42.241Z,19.58
2023-02-07T22:56:09.219Z,19.85
2023-02-07T22:58:36.128Z,17.15
2023-02-07T23:01:03.281Z,20.05
2023-02-07T23:03:29.887Z,19.45
2023-02-07T23:05:56.726Z,21.25
2023-02-07T23:08:23.339Z,19.50
2023-02-07T23:10:50.035Z,20.95
2023-02-07T23:13:17.798Z,23.02
2023-02-07T23:15:46.815Z,22.00
2023-02-07T23:18:15.650Z,21.05
2023-02-07T23:20:44.475Z,23.95
2023-02-07T23:23:12.851Z,21.42
2023-02-07T23:25:44.421Z,21.33
2023-02-07T23:28:11.941Z,20.48
2023-02-07T23:30:39.293Z,22.25
2023-02-07T23:33:07.710Z,21.90
2023-02-07T23:35:35.393Z,25.05
2023-02-07T23:38:03.164Z,22.70
2023-02-07T23:40:29.905Z,24.60
2023-02-07T23:42:56.537Z,23.58
2023-02-07T23:45:23.215Z,20.08
2023-02-07T23:47:49.768Z,22.95
2023-02-07T23:50:18.381Z,20.73
2023-02-07T23:52:44.932Z,19.63
2023-02-07T23:55:11.594Z,21.20
2023-02-07T23:57:38.347Z,19.85
